Lamont, Mississippi
Current Conditions -  °F | °C
As of 12:24 AM on Saturday 29 Nov 2014 (Local Time) from KGLH Reporting Station
Broken Clouds Broken Clouds  
Wind Chill: 42°   Ceiling: 2000
Heat Index: 46°   Visibility: 10mi
Dew Point: 35°   Wind: 8mph
Humidity: 66%   Direction: 180°S
Pressure: 30.12"   Gusts: NA
Location:  33.2777°N, 90.9989°W
Report Text: KGLH 290624Z AUTO 18007KT 10SM BKN020 08/02 A3012 RMK AO2 T00780017
Loading
Personal Weather Stations






























Interactive Weather Map New forecast layout! Learn more

10-Day Weather Forecast

Advertisements
Track Severe Weather on mobile